Time;durP1;ratioP1;P1;durP2;ratioP2;P2;SDS_P1;SDS_P2;PMS_P1;PMS_P2;Temp;Humidity;BMP_temperature;BMP_pressure;BME280_temperature;BME280_humidity;BME280_pressure;Samples;Min_cycle;Max_cycle;Signal;HPM_P1;HPM_P2
2024/03/17 00:01:03;;;;;;;39.00;26.90;;;;;;;10.28;59.04;100796.61;105148;1264;60697;-67
2024/03/17 00:03:30;;;;;;;41.30;27.90;;;;;;;10.32;59.08;100794.98;105024;1264;62464;-61
2024/03/17 00:05:59;;;;;;;28.20;14.60;;;;;;;10.33;59.00;100794.57;105147;1264;60599;-62
2024/03/17 00:08:26;;;;;;;38.60;27.20;;;;;;;10.31;59.04;100790.28;104540;1263;60492;-63
2024/03/17 00:10:57;;;;;;;40.30;29.10;;;;;;;10.30;59.02;100788.92;105305;1265;64945;-62
2024/03/17 00:13:24;;;;;;;22.30;11.30;;;;;;;10.29;59.02;100785.54;104556;1267;61414;-63
2024/03/17 00:15:52;;;;;;;40.60;28.60;;;;;;;10.25;58.99;100785.63;104717;1267;62532;-62
2024/03/17 00:18:20;;;;;;;44.00;28.70;;;;;;;10.20;59.08;100784.21;104675;1264;60479;-61
2024/03/17 00:20:47;;;;;;;23.30;10.40;;;;;;;10.20;59.02;100781.05;104628;1263;61642;-60
2024/03/17 00:23:15;;;;;;;41.70;26.20;;;;;;;10.24;58.86;100780.98;104567;1267;65272;-62
2024/03/17 00:25:43;;;;;;;42.30;27.20;;;;;;;10.26;58.96;100776.09;104614;1263;62038;-59
2024/03/17 00:28:11;;;;;;;21.60;10.50;;;;;;;10.26;59.01;100774.52;104950;1257;64293;-64
2024/03/17 00:30:39;;;;;;;43.00;27.90;;;;;;;10.22;58.99;100775.82;104722;1257;60582;-64
2024/03/17 00:33:06;;;;;;;39.80;26.90;;;;;;;10.17;58.85;100773.23;105091;1258;60434;-60
2024/03/17 00:35:34;;;;;;;20.80;10.90;;;;;;;10.11;58.96;100769.09;105093;1256;63715;-60
2024/03/17 00:38:09;;;;;;;45.00;29.30;;;;;;;10.05;58.95;100763.23;105493;1256;60546;-65
2024/03/17 00:40:38;;;;;;;22.90;10.80;;;;;;;9.99;59.04;100760.17;105273;1257;63765;-63
2024/03/17 00:43:06;;;;;;;40.50;26.70;;;;;;;9.97;59.00;100756.20;104884;1260;60529;-64
2024/03/17 00:45:33;;;;;;;37.10;25.00;;;;;;;9.98;58.97;100757.56;105284;1260;60448;-63
2024/03/17 00:48:01;;;;;;;22.70;8.60;;;;;;;9.98;59.01;100755.61;105007;1256;63645;-65
2024/03/17 00:50:28;;;;;;;37.90;27.60;;;;;;;9.98;59.12;100754.25;105521;1260;61403;-66
2024/03/17 00:52:56;;;;;;;20.10;10.80;;;;;;;9.97;59.12;100750.79;105040;1259;63829;-62
2024/03/17 00:55:23;;;;;;;38.40;27.10;;;;;;;9.95;59.10;100749.58;105095;1259;61850;-63
2024/03/17 00:57:52;;;;;;;20.50;10.90;;;;;;;9.92;59.09;100744.52;105019;1258;60938;-65
2024/03/17 01:00:19;;;;;;;36.40;26.40;;;;;;;9.89;59.16;100743.51;104944;1261;64886;-62
2024/03/17 01:02:46;;;;;;;21.00;10.90;;;;;;;9.85;59.24;100739.90;104870;1261;61423;-62
2024/03/17 01:05:14;;;;;;;37.90;23.90;;;;;;;9.86;59.16;100737.38;105045;1259;63797;-64
2024/03/17 01:07:42;;;;;;;24.10;8.80;;;;;;;9.88;59.06;100736.39;105917;1258;60469;-64
2024/03/17 01:10:09;;;;;;;40.30;25.60;;;;;;;9.93;59.10;100738.46;104958;1260;60455;-65
2024/03/17 01:12:37;;;;;;;17.80;10.50;;;;;;;9.94;59.10;100735.60;105547;1257;64962;-65
2024/03/17 01:15:08;;;;;;;38.80;25.80;;;;;;;9.92;59.07;100735.73;105036;1256;60531;-65
2024/03/17 01:17:36;;;;;;;24.90;10.50;;;;;;;9.90;59.11;100734.31;105655;1259;62507;-65
2024/03/17 01:20:04;;;;;;;37.10;26.00;;;;;;;9.86;59.16;100730.58;105001;1257;60480;-67
2024/03/17 01:22:31;;;;;;;20.40;10.30;;;;;;;9.80;59.12;100728.14;105361;1257;61612;-64
2024/03/17 01:24:59;;;;;;;41.80;26.70;;;;;;;9.79;59.22;100727.74;105488;1259;65052;-62
2024/03/17 01:27:26;;;;;;;21.70;10.20;;;;;;;9.79;59.29;100725.97;105051;1261;60372;-64
2024/03/17 01:29:54;;;;;;;32.20;24.40;;;;;;;9.81;59.21;100722.85;105930;1258;63751;-64
2024/03/17 01:32:21;;;;;;;17.30;8.30;;;;;;;9.85;59.20;100723.78;104912;1257;60661;-64
2024/03/17 01:34:49;;;;;;;37.60;22.90;;;;;;;9.88;59.06;100722.55;105128;1256;60650;-62
2024/03/17 01:37:16;;;;;;;34.60;24.50;;;;;;;9.92;59.09;100721.19;105147;1256;65044;-60
2024/03/17 01:39:44;;;;;;;22.10;10.70;;;;;;;9.95;59.10;100720.10;105248;1261;61436;-66
2024/03/17 01:42:12;;;;;;;36.60;25.20;;;;;;;9.96;59.12;100717.74;104880;1261;63703;-64
2024/03/17 01:44:39;;;;;;;22.50;11.80;;;;;;;9.97;59.03;100717.89;106676;1259;60546;-65
2024/03/17 01:47:08;;;;;;;33.60;25.20;;;;;;;9.91;58.97;100715.15;105904;1262;60486;-63
2024/03/17 01:49:36;;;;;;;22.60;10.70;;;;;;;9.84;59.07;100712.13;105215;1257;65035;-62
2024/03/17 01:52:05;;;;;;;36.80;25.10;;;;;;;9.80;59.12;100713.63;104986;1256;61868;-62
2024/03/17 01:54:33;;;;;;;37.90;24.30;;;;;;;9.78;59.19;100712.90;104852;1262;62986;-63
2024/03/17 01:57:00;;;;;;;17.10;9.20;;;;;;;9.82;59.06;100711.23;104830;1258;60568;-63
2024/03/17 01:59:28;;;;;;;34.40;23.70;;;;;;;9.88;58.95;100711.32;105066;1264;60371;-62
2024/03/17 02:01:56;;;;;;;24.10;10.20;;;;;;;9.94;59.07;100709.84;104908;1256;64950;-62
2024/03/17 02:04:23;;;;;;;34.90;23.60;;;;;;;9.95;59.03;100706.45;105730;1257;61460;-62
2024/03/17 02:06:51;;;;;;;20.70;10.00;;;;;;;9.94;59.03;100703.04;104657;1258;63741;-62
2024/03/17 02:09:18;;;;;;;35.10;24.80;;;;;;;9.93;59.10;100702.23;105116;1257;60465;-59
2024/03/17 02:11:46;;;;;;;19.60;9.40;;;;;;;9.92;59.01;100702.77;105018;1259;60544;-60
2024/03/17 02:14:14;;;;;;;39.30;24.60;;;;;;;9.90;58.93;100700.50;105059;1256;63611;-60
2024/03/17 02:16:41;;;;;;;25.90;11.60;;;;;;;9.88;58.99;100700.99;104874;1262;61844;-60
2024/03/17 02:19:09;;;;;;;32.70;23.00;;;;;;;9.90;58.93;100702.09;104995;1256;64486;-59
2024/03/17 02:21:37;;;;;;;17.20;7.80;;;;;;;9.94;58.93;100702.83;105397;1258;60566;-59
2024/03/17 02:24:05;;;;;;;34.00;22.80;;;;;;;9.99;58.96;100699.30;105376;1256;60555;-58
2024/03/17 02:26:32;;;;;;;32.50;22.80;;;;;;;10.03;58.95;100700.59;105271;1261;64947;-59
2024/03/17 02:29:00;;;;;;;31.50;23.70;;;;;;;10.08;58.90;100698.33;105062;1257;70041;-60
2024/03/17 02:31:28;;;;;;;22.60;10.40;;;;;;;10.11;58.86;100693.55;104838;1256;62448;-59
2024/03/17 02:33:55;;;;;;;35.80;24.50;;;;;;;10.12;58.77;100690.86;105064;1259;61309;-60
2024/03/17 02:36:23;;;;;;;25.30;12.70;;;;;;;10.10;58.63;100694.52;105040;1262;61182;-61
2024/03/17 02:41:36;;;;;;;23.30;11.60;;;;;;;10.03;58.69;100689.77;105094;1257;63302;-61
2024/03/17 02:44:04;;;;;;;37.90;26.30;;;;;;;9.98;58.70;100691.52;104860;1257;64291;-61
2024/03/17 02:46:33;;;;;;;23.00;10.70;;;;;;;9.94;58.83;100691.30;105315;1258;61376;-64
2024/03/17 02:49:01;;;;;;;32.80;22.90;;;;;;;9.96;58.89;100692.89;105120;1258;61106;-64
2024/03/17 02:51:29;;;;;;;18.20;9.10;;;;;;;9.98;58.79;100690.81;105035;1257;65982;-61
2024/03/17 02:53:59;;;;;;;33.80;23.50;;;;;;;10.01;58.77;100684.77;105034;1256;61348;-61
2024/03/17 02:56:27;;;;;;;34.90;23.80;;;;;;;10.07;58.83;100679.48;105692;1256;63825;-63
2024/03/17 02:58:55;;;;;;;23.70;9.70;;;;;;;10.10;58.80;100681.15;105586;1256;61342;-63
2024/03/17 03:01:22;;;;;;;37.10;23.80;;;;;;;10.10;58.74;100677.83;104852;1258;61112;-60
2024/03/17 03:03:50;;;;;;;37.40;25.70;;;;;;;10.08;58.82;100676.77;104868;1256;65951;-61
2024/03/17 03:06:19;;;;;;;20.90;9.80;;;;;;;10.06;58.70;100676.21;104790;1257;61390;-63
2024/03/17 03:08:49;;;;;;;34.30;24.60;;;;;;;10.02;58.69;100674.20;104868;1258;63726;-60
2024/03/17 03:11:17;;;;;;;19.60;9.60;;;;;;;9.97;58.71;100670.18;104982;1261;61350;-59
2024/03/17 03:13:44;;;;;;;35.50;24.90;;;;;;;9.92;58.82;100672.31;105180;1260;61354;-59
2024/03/17 03:16:13;;;;;;;19.90;10.10;;;;;;;9.89;59.00;100674.14;105065;1256;65747;-59
2024/03/17 03:18:41;;;;;;;37.10;25.00;;;;;;;9.91;59.05;100673.64;105218;1254;61260;-58
2024/03/17 03:21:08;;;;;;;15.60;8.00;;;;;;;9.95;59.01;100670.73;105068;1259;63734;-59
2024/03/17 03:23:36;;;;;;;34.70;22.80;;;;;;;9.99;59.04;100673.56;105218;1258;61375;-59
2024/03/17 03:26:04;;;;;;;31.70;22.90;;;;;;;10.05;59.01;100671.75;105009;1256;61424;-59
2024/03/17 03:28:33;;;;;;;16.50;9.40;;;;;;;10.10;59.03;100668.21;105589;1260;65758;-59
2024/03/17 03:31:02;;;;;;;34.90;23.70;;;;;;;10.13;59.02;100666.20;105589;1260;61252;-60
2024/03/17 03:33:29;;;;;;;37.50;25.10;;;;;;;10.14;58.86;100668.10;105422;1257;63798;-59
2024/03/17 03:35:57;;;;;;;33.50;24.00;;;;;;;10.10;58.86;100662.77;105011;1256;61298;-63
2024/03/17 03:38:24;;;;;;;23.90;10.80;;;;;;;10.07;58.91;100665.09;104961;1261;62476;-60
2024/03/17 03:40:52;;;;;;;34.80;23.50;;;;;;;10.03;59.00;100666.25;105643;1257;65862;-59
2024/03/17 03:43:20;;;;;;;36.40;24.40;;;;;;;9.99;59.06;100665.63;104959;1256;61462;-58
2024/03/17 03:45:47;;;;;;;18.30;8.40;;;;;;;10.02;58.99;100664.06;105038;1258;63721;-58
2024/03/17 03:48:15;;;;;;;33.70;22.40;;;;;;;10.06;58.81;100661.98;105146;1262;61317;-59
2024/03/17 03:50:43;;;;;;;35.70;22.90;;;;;;;10.10;58.92;100658.23;104986;1257;61119;-60
2024/03/17 03:53:11;;;;;;;20.40;8.40;;;;;;;10.12;59.03;100658.27;106815;1260;65702;-59
2024/03/17 03:55:38;;;;;;;33.50;24.40;;;;;;;10.13;59.12;100656.21;105165;1256;61145;-59
2024/03/17 03:58:06;;;;;;;34.20;24.50;;;;;;;10.15;59.05;100654.52;104868;1260;62485;-60
2024/03/17 04:00:34;;;;;;;20.00;9.80;;;;;;;10.13;59.00;100657.10;105103;1256;61205;-59
2024/03/17 04:03:01;;;;;;;34.70;23.40;;;;;;;10.09;58.86;100656.02;104919;1261;61177;-59
2024/03/17 04:05:29;;;;;;;24.50;9.80;;;;;;;10.03;58.94;100654.52;105166;1260;64459;-59
2024/03/17 04:07:56;;;;;;;30.20;21.40;;;;;;;10.02;58.96;100651.05;106984;1260;61247;-59
2024/03/17 04:10:24;;;;;;;13.00;6.80;;;;;;;10.03;58.91;100649.23;105065;1259;63709;-59
2024/03/17 04:12:52;;;;;;;28.80;21.40;;;;;;;10.03;58.85;100651.34;105596;1257;61406;-59
2024/03/17 04:15:20;;;;;;;32.90;21.40;;;;;;;10.04;58.94;100652.15;105178;1257;61420;-58
2024/03/17 04:17:47;;;;;;;33.70;23.00;;;;;;;10.06;59.11;100650.81;105645;1256;64405;-59
2024/03/17 04:20:16;;;;;;;18.50;11.00;;;;;;;10.08;59.23;100652.20;105052;1261;61349;-60
2024/03/17 04:22:43;;;;;;;32.00;22.00;;;;;;;10.09;59.22;100649.54;105006;1257;63872;-60
2024/03/17 04:25:12;;;;;;;17.60;8.50;;;;;;;10.10;59.22;100651.55;105197;1260;61372;-60
2024/03/17 04:27:41;;;;;;;36.30;24.60;;;;;;;10.09;59.16;100652.35;105213;1256;61163;-59
2024/03/17 04:30:11;;;;;;;22.20;10.50;;;;;;;10.04;59.13;100650.91;105054;1260;64533;-62
2024/03/17 04:32:39;;;;;;;35.30;22.50;;;;;;;9.99;59.20;100650.40;105072;1256;62437;-57
2024/03/17 04:35:07;;;;;;;32.60;22.10;;;;;;;9.96;59.23;100649.77;104985;1257;62479;-62
2024/03/17 04:37:38;;;;;;;14.00;7.20;;;;;;;9.96;59.30;100649.60;105637;1257;61382;-60
2024/03/17 04:40:09;;;;;;;28.40;21.40;;;;;;;9.98;59.22;100645.93;105125;1260;61273;-61
2024/03/17 04:42:38;;;;;;;14.60;6.50;;;;;;;10.00;59.21;100645.59;105009;1262;66363;-62
2024/03/17 04:45:09;;;;;;;31.60;21.90;;;;;;;10.02;59.30;100645.64;106796;1258;61882;-62
2024/03/17 04:47:36;;;;;;;14.00;7.70;;;;;;;10.03;59.41;100642.43;105279;1257;62491;-61
2024/03/17 04:50:05;;;;;;;29.50;21.80;;;;;;;10.03;59.55;100641.55;105049;1256;61389;-62
2024/03/17 04:52:32;;;;;;;17.90;8.80;;;;;;;10.01;59.55;100635.58;105341;1260;61375;-60
2024/03/17 04:55:00;;;;;;;28.60;20.50;;;;;;;9.96;59.38;100635.53;105481;1256;65794;-60
2024/03/17 04:57:27;;;;;;;28.90;20.50;;;;;;;9.92;59.57;100633.96;105559;1258;61614;-61
2024/03/17 04:59:55;;;;;;;14.20;6.00;;;;;;;9.94;59.63;100635.59;105031;1257;65554;-61
2024/03/17 05:02:23;;;;;;;27.50;19.20;;;;;;;9.98;59.55;100633.51;105719;1259;62256;-59
2024/03/17 05:04:50;;;;;;;16.70;7.90;;;;;;;10.00;59.57;100633.33;104993;1256;61366;-61
2024/03/17 05:07:18;;;;;;;27.40;20.00;;;;;;;10.00;59.52;100631.41;105081;1260;65715;-60
2024/03/17 05:09:45;;;;;;;25.60;20.20;;;;;;;9.96;59.62;100629.23;104963;1262;61365;-61
2024/03/17 05:12:13;;;;;;;16.60;9.30;;;;;;;9.92;59.70;100627.13;105034;1261;62492;-58
2024/03/17 05:14:41;;;;;;;33.50;21.30;;;;;;;9.87;59.81;100628.70;105043;1258;61353;-63
2024/03/17 05:17:08;;;;;;;21.20;9.40;;;;;;;9.82;59.95;100626.38;105378;1257;61237;-60
2024/03/17 05:19:36;;;;;;;29.90;21.40;;;;;;;9.79;59.97;100627.50;105123;1256;65649;-59
2024/03/17 05:22:03;;;;;;;18.60;9.80;;;;;;;9.75;60.08;100625.89;104930;1261;62029;-59
2024/03/17 05:24:31;;;;;;;13.80;6.80;;;;;;;9.76;60.09;100624.20;105435;1260;63704;-59
2024/03/17 05:26:58;;;;;;;27.20;19.20;;;;;;;9.81;60.15;100628.04;104866;1258;61258;-61
2024/03/17 05:29:26;;;;;;;19.50;8.80;;;;;;;9.86;60.18;100627.33;104960;1257;61504;-59
2024/03/17 05:31:53;;;;;;;26.90;19.80;;;;;;;9.91;60.14;100627.19;104964;1256;65706;-58
2024/03/17 05:34:24;;;;;;;29.00;19.40;;;;;;;9.93;60.24;100628.23;104939;1256;61263;-61
2024/03/17 05:36:51;;;;;;;13.20;7.10;;;;;;;9.95;60.21;100629.19;105037;1260;65266;-61
2024/03/17 05:39:20;;;;;;;28.00;20.50;;;;;;;9.94;60.21;100628.56;104887;1256;61362;-58
2024/03/17 05:41:48;;;;;;;16.20;8.70;;;;;;;9.92;60.26;100629.38;105966;1256;61246;-61
2024/03/17 05:44:16;;;;;;;27.00;19.80;;;;;;;9.89;60.27;100631.86;104932;1261;65697;-62
2024/03/17 05:46:44;;;;;;;17.80;8.00;;;;;;;9.88;60.31;100630.73;105963;1253;61435;-59
2024/03/17 05:49:11;;;;;;;24.70;18.60;;;;;;;9.90;60.30;100636.20;104865;1256;62522;-59
2024/03/17 05:51:39;;;;;;;28.70;19.50;;;;;;;9.94;60.33;100638.89;105190;1257;61308;-61
2024/03/17 05:54:06;;;;;;;14.70;7.30;;;;;;;9.98;60.24;100639.13;104931;1256;61129;-59
2024/03/17 05:56:34;;;;;;;32.70;20.10;;;;;;;10.02;60.26;100635.81;104994;1257;64479;-59
2024/03/17 05:59:02;;;;;;;27.30;20.50;;;;;;;10.00;60.16;100641.73;105294;1257;61514;-60
2024/03/17 06:01:29;;;;;;;14.50;6.90;;;;;;;9.96;60.20;100644.48;104970;1255;63754;-59
2024/03/17 06:03:57;;;;;;;28.40;19.50;;;;;;;9.91;60.24;100645.57;104938;1261;61250;-64
2024/03/17 06:06:26;;;;;;;14.10;6.60;;;;;;;9.84;60.26;100645.37;105125;1260;61567;-58
2024/03/17 06:08:55;;;;;;;28.00;19.10;;;;;;;9.80;60.30;100644.77;105100;1256;65468;-59
2024/03/17 06:11:22;;;;;;;15.40;7.00;;;;;;;9.80;60.27;100648.79;106467;1257;61593;-60
2024/03/17 06:13:50;;;;;;;30.60;20.80;;;;;;;9.80;60.47;100648.98;104907;1254;72661;-62
2024/03/17 06:16:20;;;;;;;12.60;6.60;;;;;;;9.79;60.59;100649.77;104894;1254;61250;-62
2024/03/17 06:18:50;;;;;;;27.00;18.30;;;;;;;9.75;60.56;100656.04;104826;1260;62646;-57
2024/03/17 06:21:17;;;;;;;27.60;20.10;;;;;;;9.67;60.54;100657.96;105077;1261;66135;-59
2024/03/17 06:23:45;;;;;;;17.50;6.30;;;;;;;9.61;60.74;100658.42;104815;1257;61956;-55
2024/03/17 06:26:12;;;;;;;24.90;16.30;;;;;;;9.55;60.56;100660.95;105050;1256;63829;-63
2024/03/17 06:28:40;;;;;;;14.60;7.20;;;;;;;9.45;60.58;100662.19;105062;1256;63856;-60
2024/03/17 06:31:10;;;;;;;24.40;15.70;;;;;;;9.35;60.73;100663.59;105929;1256;61395;-60
2024/03/17 06:33:37;;;;;;;15.20;7.30;;;;;;;9.23;61.04;100663.05;106636;1256;65714;-61
2024/03/17 06:36:05;;;;;;;26.30;18.60;;;;;;;9.16;61.33;100661.39;104958;1257;61999;-56
2024/03/17 06:38:33;;;;;;;14.90;6.80;;;;;;;9.10;61.64;100658.27;105570;1256;63725;-57
2024/03/17 06:41:00;;;;;;;28.00;17.80;;;;;;;9.07;61.89;100662.69;105076;1256;61395;-60
2024/03/17 06:43:28;;;;;;;12.20;4.80;;;;;;;9.06;62.08;100660.52;105115;1257;61973;-61
2024/03/17 06:46:01;;;;;;;13.70;6.20;;;;;;;9.10;62.17;100657.80;105055;1256;67848;-66
2024/03/17 06:48:28;;;;;;;22.00;14.60;;;;;;;9.18;62.19;100661.81;104879;1257;61598;-62
2024/03/17 06:50:56;;;;;;;14.40;6.80;;;;;;;9.23;62.04;100661.42;105208;1257;63777;-61
2024/03/17 06:53:24;;;;;;;26.30;18.20;;;;;;;9.24;61.97;100662.41;105484;1255;61232;-60
2024/03/17 06:55:59;;;;;;;10.10;5.10;;;;;;;9.19;61.93;100665.19;105060;1256;61360;-59
2024/03/17 06:58:29;;;;;;;22.70;15.50;;;;;;;9.14;62.10;100663.13;104967;1256;67312;-61
2024/03/17 07:00:59;;;;;;;10.30;4.70;;;;;;;9.10;62.15;100666.38;104977;1257;65030;-62
2024/03/17 07:03:27;;;;;;;24.20;15.10;;;;;;;9.12;62.08;100668.85;105451;1256;62482;-60
2024/03/17 07:06:02;;;;;;;16.90;6.00;;;;;;;9.17;61.98;100674.66;105592;1255;61768;-60
2024/03/17 07:08:30;;;;;;;15.10;6.40;;;;;;;9.15;61.94;100667.59;105390;1256;61283;-60
2024/03/17 07:11:05;;;;;;;22.10;15.20;;;;;;;9.12;62.09;100662.02;105576;1257;65727;-61
2024/03/17 07:13:34;;;;;;;19.80;14.20;;;;;;;9.09;62.20;100663.94;106958;1256;61771;-67
2024/03/17 07:16:05;;;;;;;11.70;4.80;;;;;;;9.05;62.23;100662.85;106303;1260;64510;-63
2024/03/17 07:18:34;;;;;;;22.90;14.30;;;;;;;9.02;62.20;100662.89;105433;1259;61279;-64
2024/03/17 07:21:03;;;;;;;15.70;6.70;;;;;;;9.00;62.26;100658.65;105511;1260;61257;-59
2024/03/17 07:23:32;;;;;;;12.60;4.80;;;;;;;8.98;62.41;100654.75;105278;1256;68144;-61
2024/03/17 07:26:02;;;;;;;19.70;13.60;;;;;;;8.99;62.61;100651.17;108933;1256;64457;-62
2024/03/17 07:28:30;;;;;;;13.20;5.20;;;;;;;9.03;62.63;100648.49;108768;1256;71272;-63
2024/03/17 07:31:00;;;;;;;20.10;14.20;;;;;;;9.04;62.67;100648.04;108745;1257;59100;-60
2024/03/17 07:33:27;;;;;;;16.00;7.00;;;;;;;9.06;62.51;100643.15;109236;1253;59429;-65
2024/03/17 07:35:56;;;;;;;18.20;13.10;;;;;;;9.15;62.38;100642.95;109121;1253;65727;-62
2024/03/17 07:38:27;;;;;;;13.80;5.10;;;;;;;9.25;62.20;100641.73;107508;1257;60428;-62
2024/03/17 07:41:01;;;;;;;19.50;13.30;;;;;;;9.33;62.21;100642.19;105239;1257;62445;-61
2024/03/17 07:43:31;;;;;;;10.80;4.60;;;;;;;9.38;62.22;100643.78;105944;1253;61223;-63
2024/03/17 07:46:12;;;;;;;20.40;13.10;;;;;;;9.40;62.28;100643.41;105856;1257;61353;-62
2024/03/17 07:48:44;;;;;;;10.90;5.80;;;;;;;9.41;62.19;100641.24;105561;1258;65731;-61
2024/03/17 07:51:13;;;;;;;21.10;15.00;;;;;;;9.42;62.14;100636.09;105671;1253;61858;-60
2024/03/17 07:53:41;;;;;;;15.60;6.10;;;;;;;9.41;62.07;100633.58;105575;1253;63887;-58
2024/03/17 07:56:09;;;;;;;23.80;14.20;;;;;;;9.42;62.01;100630.85;105111;1253;61360;-63
2024/03/17 07:58:38;;;;;;;17.10;5.90;;;;;;;9.46;62.00;100631.25;105430;1253;61125;-64
2024/03/17 08:01:07;;;;;;;22.30;15.60;;;;;;;9.53;61.96;100629.07;106382;1252;64455;-60
2024/03/17 08:03:35;;;;;;;18.20;6.10;;;;;;;9.56;61.93;100631.10;105662;1252;61561;-60
2024/03/17 08:06:04;;;;;;;25.90;16.90;;;;;;;9.54;61.93;100631.92;106448;1253;62465;-62
2024/03/17 08:08:32;;;;;;;18.90;8.10;;;;;;;9.55;62.09;100632.02;105568;1257;61208;-62
2024/03/17 08:11:00;;;;;;;30.40;18.50;;;;;;;9.61;62.16;100624.63;106426;1253;61370;-63
2024/03/17 08:13:34;;;;;;;20.80;9.00;;;;;;;9.63;61.89;100626.77;106447;1253;65803;-65
2024/03/17 08:16:05;;;;;;;29.10;19.20;;;;;;;9.68;61.76;100626.73;107197;1256;61419;-57
2024/03/17 08:18:33;;;;;;;14.80;6.60;;;;;;;9.74;61.74;100625.42;105440;1253;62551;-59
2024/03/17 08:21:01;;;;;;;36.10;21.80;;;;;;;9.78;61.70;100627.59;105333;1251;64247;-59
2024/03/17 08:23:29;;;;;;;32.40;21.40;;;;;;;9.77;61.64;100626.29;106059;1256;61192;-57
2024/03/17 08:25:58;;;;;;;17.30;8.30;;;;;;;9.74;61.75;100626.30;105179;1257;64438;-60
2024/03/17 08:28:26;;;;;;;35.90;22.00;;;;;;;9.71;61.64;100621.46;105038;1253;61556;-60
2024/03/17 08:31:01;;;;;;;19.40;8.20;;;;;;;9.69;61.92;100619.82;105848;1253;63788;-63
2024/03/17 08:33:30;;;;;;;;;;;;;;;9.75;61.97;100614.10;105915;1258;61324;-59
2024/03/17 08:36:01;;;;;;;38.50;23.30;;;;;;;9.83;61.71;100610.40;105193;1253;61309;-60
2024/03/17 08:38:31;;;;;;;18.20;7.80;;;;;;;9.91;61.72;100610.20;105579;1253;65719;-57
2024/03/17 08:41:06;;;;;;;43.30;26.10;;;;;;;9.96;61.71;100608.95;105946;1257;61657;-66
2024/03/17 08:43:35;;;;;;;22.30;11.30;;;;;;;10.01;61.60;100604.22;105923;1254;64618;-60
2024/03/17 08:46:07;;;;;;;47.10;28.60;;;;;;;10.04;61.58;100604.81;108074;1253;61285;-64
2024/03/17 08:48:39;;;;;;;41.00;26.20;;;;;;;10.07;61.44;100601.14;105477;1256;61369;-63
2024/03/17 08:51:07;;;;;;;45.00;26.10;;;;;;;10.13;61.33;100600.83;105124;1253;65878;-64
2024/03/17 08:53:35;;;;;;;17.60;8.60;;;;;;;10.22;61.27;100594.38;105422;1257;62326;-66
2024/03/17 08:56:03;;;;;;;45.80;28.20;;;;;;;10.31;61.19;100590.61;105311;1253;65788;-62
2024/03/17 08:58:30;;;;;;;47.80;28.60;;;;;;;10.36;61.07;100589.81;105631;1254;61250;-56
2024/03/17 09:00:58;;;;;;;25.70;11.10;;;;;;;10.38;60.71;100584.92;105183;1253;61178;-62
2024/03/17 09:03:27;;;;;;;47.80;29.00;;;;;;;10.36;60.47;100581.77;106520;1259;66620;-60
2024/03/17 09:05:54;;;;;;;44.10;28.00;;;;;;;10.33;60.38;100583.04;105244;1257;61452;-59
2024/03/17 09:08:23;;;;;;;42.40;27.00;;;;;;;10.36;60.42;100580.92;105838;1253;75055;-58
2024/03/17 09:10:55;;;;;;;25.60;9.60;;;;;;;10.40;60.28;100583.05;105294;1253;61372;-59
2024/03/17 09:13:26;;;;;;;46.20;29.00;;;;;;;10.46;60.30;100584.37;105965;1257;61945;-59
2024/03/17 09:15:59;;;;;;;46.50;30.30;;;;;;;10.50;60.20;100585.14;105875;1257;68539;-57
2024/03/17 09:18:31;;;;;;;29.80;14.30;;;;;;;10.51;60.03;100585.39;105774;1259;61642;-59
2024/03/17 09:21:04;;;;;;;46.30;30.90;;;;;;;10.50;60.20;100586.16;108418;1253;62504;-59
2024/03/17 09:23:34;;;;;;;46.30;30.90;;;;;;;10.52;60.23;100586.35;105638;1258;61720;-59
2024/03/17 09:26:03;;;;;;;49.00;30.40;;;;;;;10.53;59.98;100583.27;105532;1252;61391;-64
2024/03/17 09:28:31;;;;;;;21.50;10.80;;;;;;;10.58;59.93;100581.70;105684;1254;64453;-57
2024/03/17 09:30:59;;;;;;;45.10;29.90;;;;;;;10.64;59.71;100581.77;105263;1253;61522;-59
2024/03/17 09:33:27;;;;;;;49.40;31.90;;;;;;;10.67;59.65;100581.55;106435;1256;62539;-59
2024/03/17 09:36:08;;;;;;;45.50;31.30;;;;;;;10.69;59.79;100583.34;105237;1253;61243;-58
2024/03/17 09:38:35;;;;;;;45.00;29.40;;;;;;;10.72;59.56;100584.97;105483;1257;61162;-57
2024/03/17 09:41:03;;;;;;;21.90;11.50;;;;;;;10.71;59.30;100588.55;105240;1257;65877;-58
2024/03/17 09:43:34;;;;;;;50.10;28.90;;;;;;;10.70;59.20;100585.38;105612;1258;61197;-56
2024/03/17 09:46:03;;;;;;;29.10;13.50;;;;;;;10.71;59.29;100587.02;105724;1257;62657;-66
2024/03/17 09:48:31;;;;;;;40.00;26.50;;;;;;;10.76;59.01;100585.89;106427;1253;61240;-60
2024/03/17 09:51:00;;;;;;;46.50;29.60;;;;;;;10.82;58.75;100582.98;105605;1254;61366;-60
2024/03/17 09:53:29;;;;;;;49.40;29.90;;;;;;;10.84;58.80;100575.99;105792;1256;67950;-63
2024/03/17 09:56:03;;;;;;;29.50;14.50;;;;;;;10.89;58.94;100573.52;105085;1256;61733;-64
2024/03/17 09:58:30;;;;;;;49.20;30.20;;;;;;;10.94;58.81;100568.00;105679;1257;64239;-59
2024/03/17 10:00:58;;;;;;;43.80;30.10;;;;;;;11.00;58.79;100567.56;105131;1253;61405;-60
2024/03/17 10:03:52;;;;;;;44.90;29.90;;;;;;;11.06;58.58;100565.91;105812;1257;61331;-60
2024/03/17 10:06:20;;;;;;;25.60;11.90;;;;;;;11.12;58.18;100563.45;105358;1256;66112;-58
2024/03/17 10:08:52;;;;;;;45.40;27.60;;;;;;;11.18;57.91;100560.00;105323;1257;61131;-59
2024/03/17 10:11:21;;;;;;;41.70;28.50;;;;;;;11.20;57.63;100557.36;105963;1253;64111;-61
2024/03/17 10:14:03;;;;;;;46.60;29.40;;;;;;;11.20;57.59;100557.56;106033;1256;62130;-61
2024/03/17 10:16:34;;;;;;;45.10;29.90;;;;;;;11.19;57.72;100562.53;105614;1257;61319;-61
2024/03/17 10:19:10;;;;;;;43.50;31.40;;;;;;;11.17;57.74;100562.52;105614;1258;66174;-56
2024/03/17 10:21:38;;;;;;;25.60;10.90;;;;;;;11.17;57.84;100560.81;105541;1257;61557;-59
2024/03/17 10:24:22;;;;;;;48.30;32.30;;;;;;;11.18;57.88;100560.88;105686;1264;62588;-58
2024/03/17 10:26:51;;;;;;;46.90;30.50;;;;;;;11.18;57.85;100560.89;105984;1253;61114;-61
2024/03/17 10:29:32;;;;;;;43.70;28.90;;;;;;;11.20;57.70;100556.88;105411;1257;59746;-58
2024/03/17 10:32:15;;;;;;;45.50;30.30;;;;;;;11.24;57.70;100558.50;105338;1257;66581;-62
2024/03/17 10:34:43;;;;;;;47.50;31.00;;;;;;;11.23;57.85;100559.06;105292;1259;61813;-63
2024/03/17 10:37:14;;;;;;;45.30;31.60;;;;;;;11.20;57.89;100558.60;105124;1259;171986;-66
2024/03/17 10:42:33;;;;;;;24.20;12.20;;;;;;;10.78;58.91;100554.85;102331;1293;601020;-65
2024/03/17 10:45:01;;;;;;;45.70;30.60;;;;;;;11.00;58.25;100554.90;104480;1270;60529;-59
2024/03/17 10:47:28;;;;;;;45.70;29.60;;;;;;;11.01;58.47;100553.77;104151;1267;59711;-62
2024/03/17 10:49:56;;;;;;;45.30;31.10;;;;;;;11.07;58.33;100547.90;104257;1269;66348;-58
2024/03/17 10:52:28;;;;;;;45.20;31.50;;;;;;;11.13;58.20;100542.48;104331;1270;60384;-58
2024/03/17 10:55:10;;;;;;;49.10;31.90;;;;;;;11.16;58.02;100541.35;104339;1270;183988;-61
2024/03/17 10:57:48;;;;;;;35.70;15.30;;;;;;;11.16;58.00;100541.20;104440;1264;59701;-59
2024/03/17 11:00:22;;;;;;;47.60;34.30;;;;;;;11.12;58.08;100536.02;104613;1261;59714;-63
2024/03/17 11:02:55;;;;;;;47.80;32.00;;;;;;;11.11;58.08;100532.48;105085;1264;62909;-60
2024/03/17 11:05:23;;;;;;;45.60;30.80;;;;;;;11.12;58.07;100526.02;105035;1263;60416;-57
2024/03/17 11:07:51;;;;;;;50.70;33.30;;;;;;;11.19;58.05;100528.63;104738;1266;65201;-62
2024/03/17 11:10:24;;;;;;;45.10;31.20;;;;;;;11.24;57.88;100528.41;104285;1267;60587;-58
2024/03/17 11:12:56;;;;;;;48.50;32.90;;;;;;;11.27;57.75;100522.19;104602;1263;62281;-63
2024/03/17 11:15:43;;;;;;;43.80;32.10;;;;;;;11.28;57.68;100518.41;106782;1264;64209;-58
2024/03/17 11:18:10;;;;;;;26.70;11.60;;;;;;;11.31;57.74;100518.92;104603;1267;62310;-60
2024/03/17 11:20:42;;;;;;;48.50;33.30;;;;;;;11.35;57.75;100517.52;104327;1269;62923;-59